sensor_id;sensor_type;location;lat;lon;timestamp;temperature;humidity
52107;DHT22;38105;52.968;5.974;2023-11-21T00:00:30;9.80;99.90
52107;DHT22;38105;52.968;5.974;2023-11-21T00:02:56;9.50;99.90
52107;DHT22;38105;52.968;5.974;2023-11-21T00:05:22;9.60;99.90
52107;DHT22;38105;52.968;5.974;2023-11-21T00:07:48;9.60;99.90
52107;DHT22;38105;52.968;5.974;2023-11-21T00:10:14;9.50;99.90
52107;DHT22;38105;52.968;5.974;2023-11-21T00:12:39;9.50;99.90
52107;DHT22;38105;52.968;5.974;2023-11-21T00:15:07;9.70;99.90
52107;DHT22;38105;52.968;5.974;2023-11-21T00:17:36;9.50;99.90
52107;DHT22;38105;52.968;5.974;2023-11-21T00:20:03;9.70;99.90
52107;DHT22;38105;52.968;5.974;2023-11-21T00:22:31;9.50;99.90
52107;DHT22;38105;52.968;5.974;2023-11-21T00:24:57;9.70;99.90
52107;DHT22;38105;52.968;5.974;2023-11-21T00:27:23;9.80;99.90
52107;DHT22;38105;52.968;5.974;2023-11-21T00:29:48;9.60;99.90
52107;DHT22;38105;52.968;5.974;2023-11-21T00:32:14;9.50;99.90
52107;DHT22;38105;52.968;5.974;2023-11-21T00:34:39;9.60;99.90
52107;DHT22;38105;52.968;5.974;2023-11-21T00:37:05;9.60;99.90
52107;DHT22;38105;52.968;5.974;2023-11-21T00:39:31;9.90;99.90
52107;DHT22;38105;52.968;5.974;2023-11-21T00:41:58;9.60;99.90
52107;DHT22;38105;52.968;5.974;2023-11-21T00:44:23;9.60;99.90
52107;DHT22;38105;52.968;5.974;2023-11-21T00:46:49;9.80;99.90
52107;DHT22;38105;52.968;5.974;2023-11-21T00:49:15;9.50;99.90
52107;DHT22;38105;52.968;5.974;2023-11-21T00:51:41;9.60;99.90
52107;DHT22;38105;52.968;5.974;2023-11-21T00:54:06;9.60;99.90
52107;DHT22;38105;52.968;5.974;2023-11-21T00:56:32;9.60;99.90
52107;DHT22;38105;52.968;5.974;2023-11-21T00:58:57;9.90;99.90
52107;DHT22;38105;52.968;5.974;2023-11-21T01:01:23;9.60;99.90
52107;DHT22;38105;52.968;5.974;2023-11-21T01:03:49;9.90;99.90
52107;DHT22;38105;52.968;5.974;2023-11-21T01:06:15;9.60;99.90
52107;DHT22;38105;52.968;5.974;2023-11-21T01:08:41;9.50;99.90
52107;DHT22;38105;52.968;5.974;2023-11-21T01:11:06;9.90;99.90
52107;DHT22;38105;52.968;5.974;2023-11-21T01:13:38;9.50;99.90
52107;DHT22;38105;52.968;5.974;2023-11-21T01:16:04;9.80;99.90
52107;DHT22;38105;52.968;5.974;2023-11-21T01:18:31;10.00;99.90
52107;DHT22;38105;52.968;5.974;2023-11-21T01:20:57;9.70;99.90
52107;DHT22;38105;52.968;5.974;2023-11-21T01:23:23;9.80;99.90
52107;DHT22;38105;52.968;5.974;2023-11-21T01:25:48;9.80;99.90
52107;DHT22;38105;52.968;5.974;2023-11-21T01:28:14;9.60;99.90
52107;DHT22;38105;52.968;5.974;2023-11-21T01:30:39;9.90;99.90
52107;DHT22;38105;52.968;5.974;2023-11-21T01:33:05;10.00;99.90
52107;DHT22;38105;52.968;5.974;2023-11-21T01:35:31;9.60;99.90
52107;DHT22;38105;52.968;5.974;2023-11-21T01:37:56;9.70;99.90
52107;DHT22;38105;52.968;5.974;2023-11-21T01:40:22;9.70;99.90
52107;DHT22;38105;52.968;5.974;2023-11-21T01:42:47;9.80;99.90
52107;DHT22;38105;52.968;5.974;2023-11-21T01:45:13;9.60;99.90
52107;DHT22;38105;52.968;5.974;2023-11-21T01:47:39;9.50;99.90
52107;DHT22;38105;52.968;5.974;2023-11-21T01:50:09;9.60;99.90
52107;DHT22;38105;52.968;5.974;2023-11-21T01:52:37;9.60;99.90
52107;DHT22;38105;52.968;5.974;2023-11-21T01:55:04;9.60;99.90
52107;DHT22;38105;52.968;5.974;2023-11-21T01:57:31;9.60;99.90
52107;DHT22;38105;52.968;5.974;2023-11-21T01:59:57;9.90;99.90
52107;DHT22;38105;52.968;5.974;2023-11-21T02:02:24;10.10;99.90
52107;DHT22;38105;52.968;5.974;2023-11-21T02:04:49;9.90;99.90
52107;DHT22;38105;52.968;5.974;2023-11-21T02:07:15;10.10;99.90
52107;DHT22;38105;52.968;5.974;2023-11-21T02:09:40;10.10;99.90
52107;DHT22;38105;52.968;5.974;2023-11-21T02:12:07;9.60;99.90
52107;DHT22;38105;52.968;5.974;2023-11-21T02:14:34;9.70;99.90
52107;DHT22;38105;52.968;5.974;2023-11-21T02:17:00;9.70;99.90
52107;DHT22;38105;52.968;5.974;2023-11-21T02:19:26;9.90;99.90
52107;DHT22;38105;52.968;5.974;2023-11-21T02:21:52;9.60;99.90
52107;DHT22;38105;52.968;5.974;2023-11-21T02:24:19;9.90;99.90
52107;DHT22;38105;52.968;5.974;2023-11-21T02:26:44;10.10;99.90
52107;DHT22;38105;52.968;5.974;2023-11-21T02:29:11;9.60;99.90
52107;DHT22;38105;52.968;5.974;2023-11-21T02:31:38;9.80;99.90
52107;DHT22;38105;52.968;5.974;2023-11-21T02:34:13;9.70;99.90
52107;DHT22;38105;52.968;5.974;2023-11-21T02:36:39;9.80;99.90
52107;DHT22;38105;52.968;5.974;2023-11-21T02:39:05;10.20;99.90
52107;DHT22;38105;52.968;5.974;2023-11-21T02:41:32;9.70;99.90
52107;DHT22;38105;52.968;5.974;2023-11-21T02:44:00;10.10;99.90
52107;DHT22;38105;52.968;5.974;2023-11-21T02:47:03;9.80;99.90
52107;DHT22;38105;52.968;5.974;2023-11-21T02:49:29;9.70;99.90
52107;DHT22;38105;52.968;5.974;2023-11-21T02:51:55;9.70;99.90
52107;DHT22;38105;52.968;5.974;2023-11-21T02:54:20;10.00;99.90
52107;DHT22;38105;52.968;5.974;2023-11-21T02:56:47;9.90;99.90
52107;DHT22;38105;52.968;5.974;2023-11-21T02:59:13;10.00;99.90
52107;DHT22;38105;52.968;5.974;2023-11-21T03:01:38;10.30;99.90
52107;DHT22;38105;52.968;5.974;2023-11-21T03:04:04;10.30;99.90
52107;DHT22;38105;52.968;5.974;2023-11-21T03:06:29;10.30;99.90
52107;DHT22;38105;52.968;5.974;2023-11-21T03:08:55;9.80;99.90
52107;DHT22;38105;52.968;5.974;2023-11-21T03:11:21;10.20;99.90
52107;DHT22;38105;52.968;5.974;2023-11-21T03:13:46;10.20;99.90
52107;DHT22;38105;52.968;5.974;2023-11-21T03:16:12;10.30;99.90
52107;DHT22;38105;52.968;5.974;2023-11-21T03:18:38;10.20;99.90
52107;DHT22;38105;52.968;5.974;2023-11-21T03:21:07;10.00;99.90
52107;DHT22;38105;52.968;5.974;2023-11-21T03:23:35;10.40;99.90
52107;DHT22;38105;52.968;5.974;2023-11-21T03:26:01;10.00;99.90
52107;DHT22;38105;52.968;5.974;2023-11-21T03:28:27;10.20;99.90
52107;DHT22;38105;52.968;5.974;2023-11-21T03:30:53;9.90;99.90
52107;DHT22;38105;52.968;5.974;2023-11-21T03:33:19;9.90;99.90
52107;DHT22;38105;52.968;5.974;2023-11-21T03:35:44;10.00;99.90
52107;DHT22;38105;52.968;5.974;2023-11-21T03:38:10;10.40;99.90
52107;DHT22;38105;52.968;5.974;2023-11-21T03:40:36;9.90;99.90
52107;DHT22;38105;52.968;5.974;2023-11-21T03:43:01;10.00;99.90
52107;DHT22;38105;52.968;5.974;2023-11-21T03:45:27;10.20;99.90
52107;DHT22;38105;52.968;5.974;2023-11-21T03:47:52;10.30;99.90
52107;DHT22;38105;52.968;5.974;2023-11-21T03:50:18;10.30;99.90
52107;DHT22;38105;52.968;5.974;2023-11-21T03:52:43;10.60;99.90
52107;DHT22;38105;52.968;5.974;2023-11-21T03:55:09;10.20;99.90
52107;DHT22;38105;52.968;5.974;2023-11-21T03:57:36;10.20;99.90
52107;DHT22;38105;52.968;5.974;2023-11-21T04:00:01;10.40;99.90
52107;DHT22;38105;52.968;5.974;2023-11-21T04:02:29;10.00;99.90
52107;DHT22;38105;52.968;5.974;2023-11-21T04:04:57;10.50;99.90
52107;DHT22;38105;52.968;5.974;2023-11-21T04:07:22;10.30;99.90
52107;DHT22;38105;52.968;5.974;2023-11-21T04:09:48;10.00;99.90
52107;DHT22;38105;52.968;5.974;2023-11-21T04:12:13;10.10;99.90
52107;DHT22;38105;52.968;5.974;2023-11-21T04:14:39;10.60;99.90
52107;DHT22;38105;52.968;5.974;2023-11-21T04:17:05;10.50;99.90
52107;DHT22;38105;52.968;5.974;2023-11-21T04:19:30;10.20;99.90
52107;DHT22;38105;52.968;5.974;2023-11-21T04:21:56;10.40;99.90
52107;DHT22;38105;52.968;5.974;2023-11-21T04:24:22;10.10;99.90
52107;DHT22;38105;52.968;5.974;2023-11-21T04:26:47;10.00;99.90
52107;DHT22;38105;52.968;5.974;2023-11-21T04:29:13;10.50;99.90
52107;DHT22;38105;52.968;5.974;2023-11-21T04:31:38;10.20;99.90
52107;DHT22;38105;52.968;5.974;2023-11-21T04:34:04;10.50;99.90
52107;DHT22;38105;52.968;5.974;2023-11-21T04:36:29;10.50;99.90
52107;DHT22;38105;52.968;5.974;2023-11-21T04:38:56;10.10;99.90
52107;DHT22;38105;52.968;5.974;2023-11-21T04:41:22;10.40;99.90
52107;DHT22;38105;52.968;5.974;2023-11-21T04:43:47;10.30;99.90
52107;DHT22;38105;52.968;5.974;2023-11-21T04:46:13;10.50;99.90
52107;DHT22;38105;52.968;5.974;2023-11-21T04:48:38;10.40;99.90
52107;DHT22;38105;52.968;5.974;2023-11-21T04:51:04;10.40;99.90
52107;DHT22;38105;52.968;5.974;2023-11-21T04:53:30;9.90;99.90
52107;DHT22;38105;52.968;5.974;2023-11-21T04:55:55;10.00;99.90
52107;DHT22;38105;52.968;5.974;2023-11-21T04:58:21;10.20;99.90
52107;DHT22;38105;52.968;5.974;2023-11-21T05:00:46;10.50;99.90
52107;DHT22;38105;52.968;5.974;2023-11-21T05:03:12;10.40;99.90
52107;DHT22;38105;52.968;5.974;2023-11-21T05:05:38;10.40;99.90
52107;DHT22;38105;52.968;5.974;2023-11-21T05:08:03;10.50;99.90
52107;DHT22;38105;52.968;5.974;2023-11-21T05:10:30;10.20;99.90
52107;DHT22;38105;52.968;5.974;2023-11-21T05:12:55;10.50;99.90
52107;DHT22;38105;52.968;5.974;2023-11-21T05:15:21;10.00;99.90
52107;DHT22;38105;52.968;5.974;2023-11-21T05:17:47;10.20;99.90
52107;DHT22;38105;52.968;5.974;2023-11-21T05:20:15;9.90;99.90
52107;DHT22;38105;52.968;5.974;2023-11-21T05:22:46;9.80;99.90
52107;DHT22;38105;52.968;5.974;2023-11-21T05:25:12;9.80;99.90
52107;DHT22;38105;52.968;5.974;2023-11-21T05:27:37;9.80;99.90
52107;DHT22;38105;52.968;5.974;2023-11-21T05:30:03;9.80;99.90
52107;DHT22;38105;52.968;5.974;2023-11-21T05:32:37;9.90;99.90
52107;DHT22;38105;52.968;5.974;2023-11-21T05:35:03;9.80;99.90
52107;DHT22;38105;52.968;5.974;2023-11-21T05:37:29;9.80;99.90
52107;DHT22;38105;52.968;5.974;2023-11-21T05:39:55;10.00;99.90
52107;DHT22;38105;52.968;5.974;2023-11-21T05:42:25;10.10;99.90
52107;DHT22;38105;52.968;5.974;2023-11-21T05:44:50;9.70;99.90
52107;DHT22;38105;52.968;5.974;2023-11-21T05:47:16;10.00;99.90
52107;DHT22;38105;52.968;5.974;2023-11-21T05:49:42;9.60;99.90
52107;DHT22;38105;52.968;5.974;2023-11-21T05:52:07;9.70;99.90
52107;DHT22;38105;52.968;5.974;2023-11-21T05:54:33;9.60;99.90
52107;DHT22;38105;52.968;5.974;2023-11-21T05:56:59;10.10;99.90
52107;DHT22;38105;52.968;5.974;2023-11-21T05:59:24;9.60;99.90
52107;DHT22;38105;52.968;5.974;2023-11-21T06:01:50;9.80;99.90
52107;DHT22;38105;52.968;5.974;2023-11-21T06:04:15;9.60;99.90
52107;DHT22;38105;52.968;5.974;2023-11-21T06:06:41;9.90;99.90
52107;DHT22;38105;52.968;5.974;2023-11-21T06:09:06;10.10;99.90
52107;DHT22;38105;52.968;5.974;2023-11-21T06:11:34;9.70;99.90
52107;DHT22;38105;52.968;5.974;2023-11-21T06:14:00;10.10;99.90
52107;DHT22;38105;52.968;5.974;2023-11-21T06:16:25;9.90;99.90
52107;DHT22;38105;52.968;5.974;2023-11-21T06:18:53;9.70;99.90
52107;DHT22;38105;52.968;5.974;2023-11-21T06:21:18;9.50;99.90
52107;DHT22;38105;52.968;5.974;2023-11-21T06:23:44;10.10;99.90
52107;DHT22;38105;52.968;5.974;2023-11-21T06:26:10;9.60;99.90
52107;DHT22;38105;52.968;5.974;2023-11-21T06:28:35;9.90;99.90
52107;DHT22;38105;52.968;5.974;2023-11-21T06:31:04;9.80;99.90
52107;DHT22;38105;52.968;5.974;2023-11-21T06:33:33;9.90;99.90
52107;DHT22;38105;52.968;5.974;2023-11-21T06:35:58;10.00;99.90
52107;DHT22;38105;52.968;5.974;2023-11-21T06:38:24;9.50;99.90
52107;DHT22;38105;52.968;5.974;2023-11-21T06:40:49;9.90;99.90
52107;DHT22;38105;52.968;5.974;2023-11-21T06:43:15;9.40;99.90
52107;DHT22;38105;52.968;5.974;2023-11-21T06:45:41;9.60;99.90
52107;DHT22;38105;52.968;5.974;2023-11-21T06:48:06;9.60;99.90
52107;DHT22;38105;52.968;5.974;2023-11-21T06:50:32;9.50;99.90
52107;DHT22;38105;52.968;5.974;2023-11-21T06:52:58;9.70;99.90
52107;DHT22;38105;52.968;5.974;2023-11-21T06:55:23;9.70;99.90
52107;DHT22;38105;52.968;5.974;2023-11-21T06:57:49;9.70;99.90
52107;DHT22;38105;52.968;5.974;2023-11-21T07:00:18;9.70;99.90
52107;DHT22;38105;52.968;5.974;2023-11-21T07:02:44;9.40;99.90
52107;DHT22;38105;52.968;5.974;2023-11-21T07:05:10;9.40;99.90
52107;DHT22;38105;52.968;5.974;2023-11-21T07:07:36;9.40;99.90
52107;DHT22;38105;52.968;5.974;2023-11-21T07:10:02;9.40;99.90
52107;DHT22;38105;52.968;5.974;2023-11-21T07:12:29;9.70;99.90
52107;DHT22;38105;52.968;5.974;2023-11-21T07:14:55;9.40;99.90
52107;DHT22;38105;52.968;5.974;2023-11-21T07:17:21;9.30;99.90
52107;DHT22;38105;52.968;5.974;2023-11-21T07:19:48;9.50;99.90
52107;DHT22;38105;52.968;5.974;2023-11-21T07:22:15;9.60;99.90
52107;DHT22;38105;52.968;5.974;2023-11-21T07:24:49;9.70;99.90
52107;DHT22;38105;52.968;5.974;2023-11-21T07:27:16;9.60;99.90
52107;DHT22;38105;52.968;5.974;2023-11-21T07:29:42;9.70;99.90
52107;DHT22;38105;52.968;5.974;2023-11-21T07:32:07;9.30;99.90
52107;DHT22;38105;52.968;5.974;2023-11-21T07:34:35;9.50;99.90
52107;DHT22;38105;52.968;5.974;2023-11-21T07:37:01;9.70;99.90
52107;DHT22;38105;52.968;5.974;2023-11-21T07:39:27;9.80;99.90
52107;DHT22;38105;52.968;5.974;2023-11-21T07:41:52;9.30;99.90
52107;DHT22;38105;52.968;5.974;2023-11-21T07:44:18;9.70;99.90
52107;DHT22;38105;52.968;5.974;2023-11-21T07:46:45;9.40;99.90
52107;DHT22;38105;52.968;5.974;2023-11-21T07:49:11;9.60;99.90
52107;DHT22;38105;52.968;5.974;2023-11-21T07:51:38;9.50;99.90
52107;DHT22;38105;52.968;5.974;2023-11-21T07:54:04;9.60;99.90
52107;DHT22;38105;52.968;5.974;2023-11-21T07:56:30;9.60;99.90
52107;DHT22;38105;52.968;5.974;2023-11-21T07:58:56;9.70;99.90
52107;DHT22;38105;52.968;5.974;2023-11-21T08:01:21;9.50;99.90
52107;DHT22;38105;52.968;5.974;2023-11-21T08:03:47;9.40;99.90
52107;DHT22;38105;52.968;5.974;2023-11-21T08:06:16;9.80;99.90
52107;DHT22;38105;52.968;5.974;2023-11-21T08:08:42;9.50;99.90
52107;DHT22;38105;52.968;5.974;2023-11-21T08:11:08;9.80;99.90
52107;DHT22;38105;52.968;5.974;2023-11-21T08:13:35;9.70;99.90
52107;DHT22;38105;52.968;5.974;2023-11-21T08:16:01;9.70;99.90
52107;DHT22;38105;52.968;5.974;2023-11-21T08:18:30;9.70;99.90
52107;DHT22;38105;52.968;5.974;2023-11-21T08:20:56;9.50;99.90
52107;DHT22;38105;52.968;5.974;2023-11-21T08:23:21;9.40;99.90
52107;DHT22;38105;52.968;5.974;2023-11-21T08:25:50;9.40;99.90
52107;DHT22;38105;52.968;5.974;2023-11-21T08:28:16;9.40;99.90
52107;DHT22;38105;52.968;5.974;2023-11-21T08:30:41;9.40;99.90
52107;DHT22;38105;52.968;5.974;2023-11-21T08:33:07;9.60;99.90
52107;DHT22;38105;52.968;5.974;2023-11-21T08:35:33;9.70;99.90
52107;DHT22;38105;52.968;5.974;2023-11-21T08:37:59;9.70;99.90
52107;DHT22;38105;52.968;5.974;2023-11-21T08:40:25;9.30;99.90
52107;DHT22;38105;52.968;5.974;2023-11-21T08:42:50;9.40;99.90
52107;DHT22;38105;52.968;5.974;2023-11-21T08:45:18;9.20;99.90
52107;DHT22;38105;52.968;5.974;2023-11-21T08:47:44;9.20;99.90
52107;DHT22;38105;52.968;5.974;2023-11-21T08:50:09;9.20;99.90
52107;DHT22;38105;52.968;5.974;2023-11-21T08:52:37;9.30;99.90
52107;DHT22;38105;52.968;5.974;2023-11-21T08:55:04;9.20;99.90
52107;DHT22;38105;52.968;5.974;2023-11-21T08:57:36;9.30;99.90
52107;DHT22;38105;52.968;5.974;2023-11-21T09:00:02;9.30;99.90
52107;DHT22;38105;52.968;5.974;2023-11-21T09:02:30;9.50;99.90
52107;DHT22;38105;52.968;5.974;2023-11-21T09:04:56;9.50;99.90
52107;DHT22;38105;52.968;5.974;2023-11-21T09:07:22;9.50;99.90
52107;DHT22;38105;52.968;5.974;2023-11-21T09:09:48;9.40;99.90
52107;DHT22;38105;52.968;5.974;2023-11-21T09:12:14;9.20;99.90
52107;DHT22;38105;52.968;5.974;2023-11-21T09:14:40;9.40;99.90
52107;DHT22;38105;52.968;5.974;2023-11-21T09:17:06;9.50;99.90
52107;DHT22;38105;52.968;5.974;2023-11-21T09:19:39;9.20;99.90
52107;DHT22;38105;52.968;5.974;2023-11-21T09:22:05;9.30;99.90
52107;DHT22;38105;52.968;5.974;2023-11-21T09:24:30;9.30;99.90
52107;DHT22;38105;52.968;5.974;2023-11-21T09:26:56;9.30;99.90
52107;DHT22;38105;52.968;5.974;2023-11-21T09:29:21;9.10;99.90
52107;DHT22;38105;52.968;5.974;2023-11-21T09:31:48;9.10;99.90
52107;DHT22;38105;52.968;5.974;2023-11-21T09:34:16;9.30;99.90
52107;DHT22;38105;52.968;5.974;2023-11-21T09:36:44;9.50;99.90
52107;DHT22;38105;52.968;5.974;2023-11-21T09:39:10;9.50;99.90
52107;DHT22;38105;52.968;5.974;2023-11-21T09:47:22;9.20;99.90
52107;DHT22;38105;52.968;5.974;2023-11-21T09:49:48;9.40;99.90
52107;DHT22;38105;52.968;5.974;2023-11-21T09:52:17;9.40;99.90
52107;DHT22;38105;52.968;5.974;2023-11-21T09:54:43;9.40;99.90
52107;DHT22;38105;52.968;5.974;2023-11-21T09:57:09;9.40;99.90
52107;DHT22;38105;52.968;5.974;2023-11-21T09:59:35;9.30;99.90
52107;DHT22;38105;52.968;5.974;2023-11-21T10:02:03;9.20;99.90
52107;DHT22;38105;52.968;5.974;2023-11-21T10:04:29;9.10;99.90
52107;DHT22;38105;52.968;5.974;2023-11-21T10:06:56;9.20;99.90
52107;DHT22;38105;52.968;5.974;2023-11-21T10:09:23;9.00;99.90
52107;DHT22;38105;52.968;5.974;2023-11-21T10:11:49;9.30;99.90
52107;DHT22;38105;52.968;5.974;2023-11-21T10:14:15;9.20;99.90
52107;DHT22;38105;52.968;5.974;2023-11-21T10:16:43;9.30;99.90
52107;DHT22;38105;52.968;5.974;2023-11-21T10:19:10;9.10;99.90
52107;DHT22;38105;52.968;5.974;2023-11-21T10:21:35;9.20;99.90
52107;DHT22;38105;52.968;5.974;2023-11-21T10:24:01;9.20;99.90
52107;DHT22;38105;52.968;5.974;2023-11-21T10:26:27;9.40;99.90
52107;DHT22;38105;52.968;5.974;2023-11-21T10:28:59;9.30;99.90
52107;DHT22;38105;52.968;5.974;2023-11-21T10:31:32;9.40;99.90
52107;DHT22;38105;52.968;5.974;2023-11-21T10:34:17;9.40;99.90
52107;DHT22;38105;52.968;5.974;2023-11-21T10:36:43;9.30;99.90
52107;DHT22;38105;52.968;5.974;2023-11-21T10:39:09;9.40;99.90
52107;DHT22;38105;52.968;5.974;2023-11-21T10:41:38;9.30;99.90
52107;DHT22;38105;52.968;5.974;2023-11-21T10:44:05;9.40;99.90
52107;DHT22;38105;52.968;5.974;2023-11-21T10:46:34;9.40;99.90
52107;DHT22;38105;52.968;5.974;2023-11-21T10:49:00;9.40;99.90
52107;DHT22;38105;52.968;5.974;2023-11-21T10:51:26;9.30;99.90
52107;DHT22;38105;52.968;5.974;2023-11-21T10:53:52;9.30;99.90
52107;DHT22;38105;52.968;5.974;2023-11-21T10:56:18;9.40;99.90
52107;DHT22;38105;52.968;5.974;2023-11-21T10:58:51;9.30;99.90
52107;DHT22;38105;52.968;5.974;2023-11-21T11:01:19;9.20;99.90
52107;DHT22;38105;52.968;5.974;2023-11-21T11:03:49;9.20;99.90
52107;DHT22;38105;52.968;5.974;2023-11-21T11:06:15;9.20;99.90
52107;DHT22;38105;52.968;5.974;2023-11-21T11:08:41;9.30;99.90
52107;DHT22;38105;52.968;5.974;2023-11-21T11:11:07;9.20;99.90
52107;DHT22;38105;52.968;5.974;2023-11-21T11:13:33;9.10;99.90
52107;DHT22;38105;52.968;5.974;2023-11-21T11:15:59;9.10;99.90
52107;DHT22;38105;52.968;5.974;2023-11-21T11:18:25;9.00;99.90
52107;DHT22;38105;52.968;5.974;2023-11-21T11:20:51;9.10;99.90
52107;DHT22;38105;52.968;5.974;2023-11-21T11:25:52;8.90;99.90
52107;DHT22;38105;52.968;5.974;2023-11-21T11:28:27;8.90;99.90
52107;DHT22;38105;52.968;5.974;2023-11-21T11:31:00;8.90;99.90
52107;DHT22;38105;52.968;5.974;2023-11-21T11:33:39;8.80;99.90
52107;DHT22;38105;52.968;5.974;2023-11-21T11:36:25;8.80;99.90
52107;DHT22;38105;52.968;5.974;2023-11-21T11:38:51;8.90;99.90
52107;DHT22;38105;52.968;5.974;2023-11-21T11:41:24;9.00;99.90
52107;DHT22;38105;52.968;5.974;2023-11-21T11:43:51;8.90;99.90
52107;DHT22;38105;52.968;5.974;2023-11-21T11:46:16;8.90;99.90
52107;DHT22;38105;52.968;5.974;2023-11-21T11:48:42;9.00;99.90
52107;DHT22;38105;52.968;5.974;2023-11-21T11:51:14;8.90;99.90
52107;DHT22;38105;52.968;5.974;2023-11-21T11:53:42;8.90;99.90
52107;DHT22;38105;52.968;5.974;2023-11-21T11:58:56;8.90;99.90
52107;DHT22;38105;52.968;5.974;2023-11-21T12:01:23;8.90;99.90
52107;DHT22;38105;52.968;5.974;2023-11-21T12:06:34;9.00;99.90
52107;DHT22;38105;52.968;5.974;2023-11-21T12:09:03;9.10;99.90
52107;DHT22;38105;52.968;5.974;2023-11-21T12:11:31;9.20;99.90
52107;DHT22;38105;52.968;5.974;2023-11-21T12:13:57;9.40;99.90
52107;DHT22;38105;52.968;5.974;2023-11-21T12:16:25;9.50;99.90
52107;DHT22;38105;52.968;5.974;2023-11-21T12:18:53;9.60;99.90
52107;DHT22;38105;52.968;5.974;2023-11-21T12:21:19;9.50;99.90
52107;DHT22;38105;52.968;5.974;2023-11-21T12:23:45;9.60;99.90
52107;DHT22;38105;52.968;5.974;2023-11-21T12:26:13;9.60;99.90
52107;DHT22;38105;52.968;5.974;2023-11-21T12:28:39;9.50;99.90
52107;DHT22;38105;52.968;5.974;2023-11-21T12:31:05;9.50;99.90
52107;DHT22;38105;52.968;5.974;2023-11-21T12:33:35;9.30;99.90
52107;DHT22;38105;52.968;5.974;2023-11-21T12:36:00;9.40;99.90
52107;DHT22;38105;52.968;5.974;2023-11-21T12:38:33;9.40;99.90
52107;DHT22;38105;52.968;5.974;2023-11-21T12:40:58;9.40;99.90
52107;DHT22;38105;52.968;5.974;2023-11-21T12:43:24;9.50;99.90
52107;DHT22;38105;52.968;5.974;2023-11-21T12:45:50;9.40;99.90
52107;DHT22;38105;52.968;5.974;2023-11-21T12:48:15;9.40;99.90
52107;DHT22;38105;52.968;5.974;2023-11-21T12:50:48;9.40;99.90
52107;DHT22;38105;52.968;5.974;2023-11-21T12:53:18;9.40;99.90
52107;DHT22;38105;52.968;5.974;2023-11-21T12:55:44;9.50;99.90
52107;DHT22;38105;52.968;5.974;2023-11-21T12:58:15;9.40;99.90
52107;DHT22;38105;52.968;5.974;2023-11-21T13:00:47;9.40;99.90
52107;DHT22;38105;52.968;5.974;2023-11-21T13:03:13;9.50;99.90
52107;DHT22;38105;52.968;5.974;2023-11-21T13:05:42;9.40;99.90
52107;DHT22;38105;52.968;5.974;2023-11-21T13:08:10;9.30;99.90
52107;DHT22;38105;52.968;5.974;2023-11-21T13:10:38;9.30;99.90
52107;DHT22;38105;52.968;5.974;2023-11-21T13:13:05;9.20;99.90
52107;DHT22;38105;52.968;5.974;2023-11-21T13:15:34;9.10;99.90
52107;DHT22;38105;52.968;5.974;2023-11-21T13:18:02;9.00;99.90
52107;DHT22;38105;52.968;5.974;2023-11-21T13:20:27;9.00;99.90
52107;DHT22;38105;52.968;5.974;2023-11-21T13:22:56;9.00;99.90
52107;DHT22;38105;52.968;5.974;2023-11-21T13:25:24;9.00;99.90
52107;DHT22;38105;52.968;5.974;2023-11-21T13:27:53;8.90;99.90
52107;DHT22;38105;52.968;5.974;2023-11-21T13:30:19;8.90;99.90
52107;DHT22;38105;52.968;5.974;2023-11-21T13:32:52;9.00;99.90
52107;DHT22;38105;52.968;5.974;2023-11-21T13:35:18;9.00;99.90
52107;DHT22;38105;52.968;5.974;2023-11-21T13:37:51;8.90;99.90
52107;DHT22;38105;52.968;5.974;2023-11-21T13:40:21;8.90;99.90
52107;DHT22;38105;52.968;5.974;2023-11-21T13:42:51;9.00;99.90
52107;DHT22;38105;52.968;5.974;2023-11-21T13:45:21;8.90;99.90
52107;DHT22;38105;52.968;5.974;2023-11-21T13:47:51;8.90;99.90
52107;DHT22;38105;52.968;5.974;2023-11-21T13:50:18;8.90;99.90
52107;DHT22;38105;52.968;5.974;2023-11-21T13:52:48;8.90;99.90
52107;DHT22;38105;52.968;5.974;2023-11-21T13:55:14;8.90;99.90
52107;DHT22;38105;52.968;5.974;2023-11-21T13:57:42;9.00;99.90
52107;DHT22;38105;52.968;5.974;2023-11-21T14:00:11;9.00;99.90
52107;DHT22;38105;52.968;5.974;2023-11-21T14:02:56;9.00;99.90
52107;DHT22;38105;52.968;5.974;2023-11-21T14:05:26;9.00;99.90
52107;DHT22;38105;52.968;5.974;2023-11-21T14:07:57;9.10;99.90
52107;DHT22;38105;52.968;5.974;2023-11-21T14:10:30;9.10;99.90
52107;DHT22;38105;52.968;5.974;2023-11-21T14:13:09;9.10;99.90
52107;DHT22;38105;52.968;5.974;2023-11-21T14:15:36;9.10;99.90
52107;DHT22;38105;52.968;5.974;2023-11-21T14:18:10;9.00;99.90
52107;DHT22;38105;52.968;5.974;2023-11-21T14:20:39;9.10;99.90
52107;DHT22;38105;52.968;5.974;2023-11-21T14:23:05;9.00;99.90
52107;DHT22;38105;52.968;5.974;2023-11-21T14:25:35;9.00;99.90
52107;DHT22;38105;52.968;5.974;2023-11-21T14:28:02;8.90;99.90
52107;DHT22;38105;52.968;5.974;2023-11-21T14:30:32;8.90;99.90
52107;DHT22;38105;52.968;5.974;2023-11-21T14:33:01;8.90;99.90
52107;DHT22;38105;52.968;5.974;2023-11-21T14:35:27;8.80;99.90
52107;DHT22;38105;52.968;5.974;2023-11-21T14:37:53;8.80;99.90
52107;DHT22;38105;52.968;5.974;2023-11-21T14:40:19;8.80;99.90
52107;DHT22;38105;52.968;5.974;2023-11-21T14:42:50;8.80;99.90
52107;DHT22;38105;52.968;5.974;2023-11-21T14:45:18;8.80;99.90
52107;DHT22;38105;52.968;5.974;2023-11-21T14:47:48;8.70;99.90
52107;DHT22;38105;52.968;5.974;2023-11-21T14:50:41;8.70;99.90
52107;DHT22;38105;52.968;5.974;2023-11-21T14:53:07;8.60;99.90
52107;DHT22;38105;52.968;5.974;2023-11-21T14:55:33;8.60;99.90
52107;DHT22;38105;52.968;5.974;2023-11-21T14:58:10;8.60;99.90
52107;DHT22;38105;52.968;5.974;2023-11-21T15:00:40;8.60;99.90
52107;DHT22;38105;52.968;5.974;2023-11-21T15:03:11;8.60;99.90
52107;DHT22;38105;52.968;5.974;2023-11-21T15:05:56;8.60;99.90
52107;DHT22;38105;52.968;5.974;2023-11-21T15:08:22;8.60;99.90
52107;DHT22;38105;52.968;5.974;2023-11-21T15:10:55;8.60;99.90
52107;DHT22;38105;52.968;5.974;2023-11-21T15:13:21;8.50;99.90
52107;DHT22;38105;52.968;5.974;2023-11-21T15:15:52;8.50;99.90
52107;DHT22;38105;52.968;5.974;2023-11-21T15:18:20;8.40;99.90
52107;DHT22;38105;52.968;5.974;2023-11-21T15:20:45;8.40;99.90
52107;DHT22;38105;52.968;5.974;2023-11-21T15:23:11;8.40;99.90
52107;DHT22;38105;52.968;5.974;2023-11-21T15:25:38;8.40;99.90
52107;DHT22;38105;52.968;5.974;2023-11-21T15:28:03;8.40;99.90
52107;DHT22;38105;52.968;5.974;2023-11-21T15:30:30;8.20;99.90
52107;DHT22;38105;52.968;5.974;2023-11-21T15:33:00;8.20;99.90
52107;DHT22;38105;52.968;5.974;2023-11-21T15:35:25;8.10;99.90
52107;DHT22;38105;52.968;5.974;2023-11-21T15:37:53;8.10;99.90
52107;DHT22;38105;52.968;5.974;2023-11-21T15:40:19;8.00;99.90
52107;DHT22;38105;52.968;5.974;2023-11-21T15:42:44;8.00;99.90
52107;DHT22;38105;52.968;5.974;2023-11-21T15:45:10;7.90;99.90
52107;DHT22;38105;52.968;5.974;2023-11-21T15:47:36;7.90;99.90
52107;DHT22;38105;52.968;5.974;2023-11-21T15:50:01;7.80;99.90
52107;DHT22;38105;52.968;5.974;2023-11-21T15:52:29;7.80;99.90
52107;DHT22;38105;52.968;5.974;2023-11-21T15:54:55;7.70;99.90